createdAt,value
2023-01-21T00:00:45.769Z,2.25
2023-01-21T00:03:13.128Z,2.18
2023-01-21T00:05:40.103Z,2.13
2023-01-21T00:08:07.107Z,2.08
2023-01-21T00:10:34.100Z,2.13
2023-01-21T00:13:00.888Z,2.19
2023-01-21T00:15:27.865Z,2.14
2023-01-21T00:17:54.879Z,2.08
2023-01-21T00:20:21.873Z,2.03
2023-01-21T00:22:48.708Z,2.04
2023-01-21T00:25:15.546Z,2.12
2023-01-21T00:27:42.425Z,2.12
2023-01-21T00:30:10.844Z,2.09
2023-01-21T00:32:37.693Z,2.04
2023-01-21T00:35:06.438Z,2.00
2023-01-21T00:37:33.369Z,2.06
2023-01-21T00:40:00.177Z,2.12
2023-01-21T00:42:28.126Z,2.08
2023-01-21T00:44:58.467Z,2.02
2023-01-21T00:47:25.281Z,1.96
2023-01-21T00:49:52.220Z,1.97
2023-01-21T00:52:19.135Z,2.05
2023-01-21T00:54:46.127Z,2.03
2023-01-21T00:57:13.964Z,1.95
2023-01-21T00:59:41.041Z,1.87
2023-01-21T01:02:09.096Z,1.83
2023-01-21T01:04:36.138Z,1.89
2023-01-21T01:07:03.194Z,1.94
2023-01-21T01:09:30.023Z,1.90
2023-01-21T01:11:57.094Z,1.80
2023-01-21T01:14:23.892Z,1.70
2023-01-21T01:16:50.719Z,1.75
2023-01-21T01:19:17.820Z,1.78
2023-01-21T01:21:44.699Z,1.71
2023-01-21T01:24:11.603Z,1.66
2023-01-21T01:26:39.946Z,1.62
2023-01-21T01:29:10.308Z,1.68
2023-01-21T01:31:37.144Z,1.69
2023-01-21T01:34:04.058Z,1.61
2023-01-21T01:36:30.979Z,1.54
2023-01-21T01:38:59.176Z,1.50
2023-01-21T01:41:28.639Z,1.56
2023-01-21T01:43:59.912Z,1.60
2023-01-21T01:46:28.982Z,1.55
2023-01-21T01:49:01.302Z,1.51
2023-01-21T01:51:37.141Z,1.49
2023-01-21T01:54:06.187Z,1.49
2023-01-21T01:56:32.972Z,1.59
2023-01-21T01:58:59.752Z,1.67
2023-01-21T02:01:26.724Z,1.66
2023-01-21T02:03:59.629Z,1.61
2023-01-21T02:06:26.950Z,1.55
2023-01-21T02:08:54.537Z,1.50
2023-01-21T02:11:21.449Z,1.56
2023-01-21T02:13:51.730Z,1.62
2023-01-21T02:16:32.443Z,1.57
2023-01-21T02:19:17.329Z,1.50
2023-01-21T02:21:47.254Z,1.44
2023-01-21T02:24:58.609Z,1.41
2023-01-21T02:28:18.185Z,1.52
2023-01-21T02:31:06.549Z,1.53
2023-01-21T02:33:52.456Z,1.46
2023-01-21T02:36:44.038Z,1.41
2023-01-21T02:39:50.623Z,1.42
2023-01-21T02:42:40.990Z,1.50
2023-01-21T02:45:41.239Z,1.46
2023-01-21T02:48:12.275Z,1.37
2023-01-21T02:50:44.722Z,1.32
2023-01-21T02:56:18.889Z,1.47
2023-01-21T02:58:49.778Z,1.37
2023-01-21T03:01:45.045Z,1.31
2023-01-21T03:04:30.380Z,1.31
2023-01-21T03:07:16.323Z,1.43
2023-01-21T03:09:45.025Z,1.43
2023-01-21T03:12:30.473Z,1.37
2023-01-21T03:15:20.146Z,1.29
2023-01-21T03:17:51.501Z,1.33
2023-01-21T03:20:31.319Z,1.29
2023-01-21T03:23:01.588Z,1.20
2023-01-21T03:25:28.628Z,1.14
2023-01-21T03:27:55.311Z,1.13
2023-01-21T03:30:22.703Z,1.24
2023-01-21T03:32:49.951Z,1.31
2023-01-21T03:35:20.359Z,1.31
2023-01-21T03:37:47.524Z,1.26
2023-01-21T03:40:21.630Z,1.19
2023-01-21T03:42:50.776Z,1.22
2023-01-21T03:45:19.266Z,1.31
2023-01-21T03:47:50.674Z,1.29
2023-01-21T03:50:19.441Z,1.22
2023-01-21T03:52:46.417Z,1.14
2023-01-21T03:55:13.553Z,1.08
2023-01-21T03:57:40.301Z,1.12
2023-01-21T04:00:17.514Z,1.19
2023-01-21T04:02:44.625Z,1.17
2023-01-21T04:05:12.391Z,1.13
2023-01-21T04:07:39.148Z,1.09
2023-01-21T04:10:06.328Z,1.08
2023-01-21T04:12:33.632Z,1.09
2023-01-21T04:15:00.487Z,1.17
2023-01-21T04:17:28.345Z,1.24
2023-01-21T04:19:55.265Z,1.19
2023-01-21T04:22:22.066Z,1.14
2023-01-21T04:24:48.783Z,1.11
2023-01-21T04:27:15.464Z,1.16
2023-01-21T04:29:42.141Z,1.29
2023-01-21T04:32:08.821Z,1.34
2023-01-21T04:34:35.585Z,1.30
2023-01-21T04:37:02.379Z,1.26
2023-01-21T04:39:29.210Z,1.22
2023-01-21T04:41:55.840Z,1.29
2023-01-21T04:44:22.594Z,1.31
2023-01-21T04:46:49.290Z,1.26
2023-01-21T04:49:15.984Z,1.21
2023-01-21T04:51:42.914Z,1.14
2023-01-21T04:54:10.509Z,1.11
2023-01-21T04:56:37.202Z,1.16
2023-01-21T04:59:04.007Z,1.24
2023-01-21T05:01:30.856Z,1.20
2023-01-21T05:03:57.633Z,1.12
2023-01-21T05:06:24.491Z,1.06
2023-01-21T05:08:51.200Z,1.07
2023-01-21T05:11:18.286Z,1.18
2023-01-21T05:13:45.015Z,1.20
2023-01-21T05:16:11.836Z,1.16
2023-01-21T05:18:38.694Z,1.13
2023-01-21T05:21:05.843Z,1.08
2023-01-21T05:23:32.712Z,1.05
2023-01-21T05:25:59.631Z,1.06
2023-01-21T05:28:26.372Z,1.14
2023-01-21T05:30:53.169Z,1.14
2023-01-21T05:33:26.208Z,1.09
2023-01-21T05:35:53.060Z,1.06
2023-01-21T05:38:20.346Z,1.02
2023-01-21T05:40:47.133Z,1.06
2023-01-21T05:43:13.976Z,1.13
2023-01-21T05:45:40.734Z,1.10
2023-01-21T05:48:07.578Z,1.03
2023-01-21T05:50:34.300Z,0.95
2023-01-21T05:53:01.151Z,0.93
2023-01-21T05:55:27.869Z,1.00
2023-01-21T05:57:54.691Z,1.04
2023-01-21T06:00:21.881Z,0.97
2023-01-21T06:02:48.534Z,0.91
2023-01-21T06:05:15.363Z,0.86
2023-01-21T06:07:42.118Z,0.84
2023-01-21T06:10:09.351Z,0.90
2023-01-21T06:12:36.061Z,0.95
2023-01-21T06:15:03.041Z,0.92
2023-01-21T06:17:29.776Z,0.87
2023-01-21T06:19:56.515Z,0.82
2023-01-21T06:22:23.669Z,0.85
2023-01-21T06:24:50.327Z,0.92
2023-01-21T06:27:17.016Z,0.88
2023-01-21T06:29:44.104Z,0.81
2023-01-21T06:32:10.908Z,0.75
2023-01-21T06:34:37.712Z,0.76
2023-01-21T06:37:04.551Z,0.86
2023-01-21T06:39:31.357Z,0.91
2023-01-21T06:41:58.007Z,0.88
2023-01-21T06:44:24.782Z,0.85
2023-01-21T06:47:00.645Z,0.83
2023-01-21T06:49:28.047Z,0.84
2023-01-21T06:51:54.901Z,0.98
2023-01-21T06:54:21.833Z,1.04
2023-01-21T06:56:48.691Z,1.00
2023-01-21T06:59:15.359Z,0.94
2023-01-21T07:01:42.170Z,0.90
2023-01-21T07:04:09.110Z,0.96
2023-01-21T07:06:36.078Z,1.03
2023-01-21T07:09:04.009Z,0.99
2023-01-21T07:11:31.072Z,0.93
2023-01-21T07:13:57.889Z,0.87
2023-01-21T07:16:24.923Z,0.93
2023-01-21T07:18:51.904Z,0.98
2023-01-21T07:21:18.633Z,0.93
2023-01-21T07:23:46.748Z,0.88
2023-01-21T07:26:13.557Z,0.88
2023-01-21T07:28:41.542Z,0.96
2023-01-21T07:31:08.933Z,0.95
2023-01-21T07:33:35.951Z,0.94
2023-01-21T07:36:02.710Z,0.94
2023-01-21T07:38:29.448Z,0.98
2023-01-21T07:40:56.287Z,1.14
2023-01-21T07:43:23.058Z,1.20
2023-01-21T07:45:50.898Z,1.13
2023-01-21T07:48:17.685Z,1.05
2023-01-21T07:50:44.705Z,1.02
2023-01-21T07:53:15.276Z,1.10
2023-01-21T07:55:42.222Z,1.12
2023-01-21T07:58:10.807Z,1.09
2023-01-21T08:00:37.653Z,1.07
2023-01-21T08:03:04.351Z,1.05
2023-01-21T08:05:31.161Z,1.11
2023-01-21T08:07:58.410Z,1.18
2023-01-21T08:10:25.297Z,1.14
2023-01-21T08:12:52.083Z,1.07
2023-01-21T08:15:19.315Z,1.02
2023-01-21T08:17:47.804Z,0.98
2023-01-21T08:20:14.964Z,0.97
2023-01-21T08:22:41.691Z,1.01
2023-01-21T08:25:08.836Z,1.08
2023-01-21T08:27:35.677Z,1.10
2023-01-21T08:30:02.524Z,1.04
2023-01-21T08:32:30.384Z,0.99
2023-01-21T08:34:57.346Z,0.96
2023-01-21T08:37:24.183Z,0.97
2023-01-21T08:39:51.032Z,1.09
2023-01-21T08:42:17.867Z,1.15
2023-01-21T08:44:46.129Z,1.15
2023-01-21T08:47:12.945Z,1.14
2023-01-21T08:49:39.923Z,1.08
2023-01-21T08:52:07.178Z,1.11
2023-01-21T08:54:34.226Z,1.18
2023-01-21T08:57:01.000Z,1.15
2023-01-21T08:59:30.195Z,1.09
2023-01-21T09:01:56.900Z,1.01
2023-01-21T09:04:23.847Z,1.04
2023-01-21T09:06:50.587Z,1.12
2023-01-21T09:09:17.542Z,1.09
2023-01-21T09:11:44.271Z,1.05
2023-01-21T09:14:10.964Z,1.01
2023-01-21T09:16:37.826Z,0.95
2023-01-21T09:19:04.567Z,0.99
2023-01-21T09:21:31.713Z,1.04
2023-01-21T09:23:58.499Z,0.97
2023-01-21T09:26:25.324Z,0.92
2023-01-21T09:29:01.197Z,0.87
2023-01-21T09:31:28.521Z,0.92
2023-01-21T09:33:56.411Z,1.04
2023-01-21T09:36:24.368Z,1.09
2023-01-21T09:38:51.215Z,1.12
2023-01-21T09:41:27.273Z,1.11
2023-01-21T09:43:56.852Z,1.11
2023-01-21T09:46:33.555Z,1.21
2023-01-21T09:49:00.813Z,1.31
2023-01-21T09:51:34.011Z,1.32
2023-01-21T09:54:02.080Z,1.30
2023-01-21T09:56:34.556Z,1.27
2023-01-21T09:59:03.729Z,1.25
2023-01-21T10:01:34.097Z,1.25
2023-01-21T10:04:16.400Z,1.36
2023-01-21T10:06:51.625Z,1.50
2023-01-21T10:09:18.364Z,1.49
2023-01-21T10:11:48.281Z,1.44
2023-01-21T10:14:24.318Z,1.38
2023-01-21T10:16:57.156Z,1.36
2023-01-21T10:19:28.558Z,1.37
2023-01-21T10:22:02.653Z,1.39
2023-01-21T10:24:30.944Z,1.48
2023-01-21T10:26:57.683Z,1.50
2023-01-21T10:29:24.543Z,1.43
2023-01-21T10:31:54.611Z,1.33
2023-01-21T10:34:21.485Z,1.26
2023-01-21T10:36:48.164Z,1.21
2023-01-21T10:39:17.942Z,1.26
2023-01-21T10:41:57.030Z,1.40
2023-01-21T10:44:42.656Z,1.45
2023-01-21T10:47:27.945Z,1.46
2023-01-21T10:49:57.959Z,1.45
2023-01-21T10:52:26.863Z,1.42
2023-01-21T10:54:53.511Z,1.45
2023-01-21T10:57:27.496Z,1.56
2023-01-21T10:59:54.251Z,1.61
2023-01-21T11:02:22.345Z,1.60
2023-01-21T11:04:49.003Z,1.56
2023-01-21T11:07:17.214Z,1.52
2023-01-21T11:09:45.991Z,1.55
2023-01-21T11:12:13.813Z,1.69
2023-01-21T11:14:40.520Z,1.72
2023-01-21T11:17:07.714Z,1.62
2023-01-21T11:19:34.490Z,1.49
2023-01-21T11:22:05.669Z,1.43
2023-01-21T11:24:33.165Z,1.41
2023-01-21T11:27:00.852Z,1.49
2023-01-21T11:29:28.626Z,1.58
2023-01-21T11:32:16.520Z,1.57
2023-01-21T11:34:44.252Z,1.50
2023-01-21T11:37:11.209Z,1.46
2023-01-21T11:39:46.994Z,1.42
2023-01-21T11:42:14.266Z,1.40
2023-01-21T11:44:53.377Z,1.51
2023-01-21T11:47:28.155Z,1.60
2023-01-21T11:49:54.879Z,1.58
2023-01-21T11:52:21.610Z,1.53
2023-01-21T11:54:48.391Z,1.48
2023-01-21T11:57:20.949Z,1.51
2023-01-21T11:59:47.980Z,1.58
2023-01-21T12:02:18.734Z,1.55
2023-01-21T12:04:49.964Z,1.47
2023-01-21T12:07:20.195Z,1.42
2023-01-21T12:10:10.308Z,1.36
2023-01-21T12:12:40.618Z,1.44
2023-01-21T12:15:13.681Z,1.49
2023-01-21T12:17:52.752Z,1.43
2023-01-21T12:20:34.178Z,1.38
2023-01-21T12:23:03.952Z,1.29
2023-01-21T12:26:00.197Z,1.20
2023-01-21T12:28:45.337Z,1.20
2023-01-21T12:31:27.716Z,1.29
2023-01-21T12:34:10.720Z,1.24
2023-01-21T12:36:41.770Z,1.14
2023-01-21T12:39:22.476Z,1.06
2023-01-21T12:41:51.661Z,1.07
2023-01-21T12:44:22.585Z,1.13
2023-01-21T12:46:49.944Z,1.08
2023-01-21T12:49:21.723Z,0.99
2023-01-21T12:51:53.637Z,0.93
2023-01-21T12:54:23.750Z,0.92
2023-01-21T12:57:09.674Z,1.01
2023-01-21T12:59:44.344Z,1.00
2023-01-21T13:02:17.350Z,0.95
2023-01-21T13:04:57.658Z,0.93
2023-01-21T13:07:43.434Z,0.91
2023-01-21T13:10:20.493Z,0.93
2023-01-21T13:12:49.605Z,1.06
2023-01-21T13:15:23.895Z,1.12
2023-01-21T13:17:52.382Z,1.04
2023-01-21T13:20:20.107Z,0.95
2023-01-21T13:22:59.719Z,0.87
2023-01-21T13:25:35.267Z,0.90
2023-01-21T13:28:05.456Z,1.00
2023-01-21T13:30:40.888Z,0.98
2023-01-21T13:33:07.639Z,0.90
2023-01-21T13:35:34.317Z,0.85
2023-01-21T13:38:13.279Z,0.82
2023-01-21T13:40:46.133Z,0.83
2023-01-21T13:43:47.855Z,0.93
2023-01-21T13:47:14.407Z,1.00
2023-01-21T13:50:02.584Z,0.96
2023-01-21T13:52:36.046Z,0.94
2023-01-21T13:55:06.559Z,0.93
2023-01-21T13:57:51.866Z,1.06
2023-01-21T14:00:33.969Z,1.13
2023-01-21T14:03:10.094Z,1.10
2023-01-21T14:06:10.751Z,1.07
2023-01-21T14:08:53.068Z,1.06
2023-01-21T14:11:30.250Z,1.14
2023-01-21T14:14:03.385Z,1.24
2023-01-21T14:16:42.591Z,1.22
2023-01-21T14:23:16.779Z,1.13
2023-01-21T14:25:43.734Z,1.24
2023-01-21T14:28:26.482Z,1.27
2023-01-21T14:31:12.509Z,1.22
2023-01-21T14:33:44.494Z,1.17
2023-01-21T14:36:47.788Z,1.11
2023-01-21T14:39:58.041Z,1.14
2023-01-21T14:42:40.737Z,1.21
2023-01-21T14:45:08.408Z,1.20
2023-01-21T14:47:35.074Z,1.17
2023-01-21T14:50:01.785Z,1.13
2023-01-21T14:52:36.678Z,1.10
2023-01-21T14:55:16.599Z,1.16
2023-01-21T14:57:43.602Z,1.24
2023-01-21T15:00:12.180Z,1.20
2023-01-21T15:02:43.165Z,1.13
2023-01-21T15:05:10.144Z,1.09
2023-01-21T15:07:40.767Z,1.12
2023-01-21T15:10:31.296Z,1.26
2023-01-21T15:14:34.572Z,1.33
2023-01-21T15:17:01.503Z,1.24
2023-01-21T15:19:33.428Z,1.20
2023-01-21T15:22:01.786Z,1.27
2023-01-21T15:24:33.292Z,1.29
2023-01-21T15:27:15.543Z,1.25
2023-01-21T15:29:43.460Z,1.23
2023-01-21T15:32:35.795Z,1.20
2023-01-21T15:35:25.717Z,1.28
2023-01-21T15:37:59.368Z,1.33
2023-01-21T15:40:28.359Z,1.27
2023-01-21T15:43:01.143Z,1.21
2023-01-21T15:45:47.039Z,1.27
2023-01-21T15:48:42.734Z,1.33
2023-01-21T15:51:15.802Z,1.30
2023-01-21T15:54:07.592Z,1.26
2023-01-21T15:57:12.922Z,1.23
2023-01-21T16:00:47.217Z,1.33
2023-01-21T16:03:34.364Z,1.29
2023-01-21T16:06:36.614Z,1.26
2023-01-21T16:13:53.324Z,1.41
2023-01-21T16:16:28.050Z,1.36
2023-01-21T16:18:59.661Z,1.30
2023-01-21T16:21:32.711Z,1.26
2023-01-21T16:24:00.845Z,1.40
2023-01-21T16:26:31.912Z,1.50
2023-01-21T16:29:02.299Z,1.50
2023-01-21T16:31:29.335Z,1.47
2023-01-21T16:33:56.622Z,1.41
2023-01-21T16:36:23.527Z,1.44
2023-01-21T16:38:50.761Z,1.48
2023-01-21T16:41:19.991Z,1.44
2023-01-21T16:43:53.242Z,1.37
2023-01-21T16:46:34.811Z,1.33
2023-01-21T16:49:04.976Z,1.43
2023-01-21T16:51:36.099Z,1.46
2023-01-21T16:54:25.350Z,1.42
2023-01-21T16:57:00.275Z,1.35
2023-01-21T16:59:34.223Z,1.33
2023-01-21T17:02:01.132Z,1.46
2023-01-21T17:04:28.469Z,1.49
2023-01-21T17:06:55.308Z,1.47
2023-01-21T17:09:30.516Z,1.42
2023-01-21T17:11:57.482Z,1.46
2023-01-21T17:14:26.997Z,1.49
2023-01-21T17:16:54.719Z,1.46
2023-01-21T17:19:31.674Z,1.44
2023-01-21T17:22:00.530Z,1.44
2023-01-21T17:24:38.525Z,1.52
2023-01-21T17:27:18.686Z,1.50
2023-01-21T17:29:45.566Z,1.43
2023-01-21T17:32:27.348Z,1.41
2023-01-21T17:35:10.657Z,1.49
2023-01-21T17:37:44.084Z,1.57
2023-01-21T17:40:24.921Z,1.55
2023-01-21T17:42:51.963Z,1.51
2023-01-21T17:45:33.050Z,1.50
2023-01-21T17:48:11.025Z,1.62
2023-01-21T17:50:38.961Z,1.75
2023-01-21T17:53:07.486Z,1.72
2023-01-21T17:55:36.091Z,1.65
2023-01-21T17:58:05.771Z,1.61
2023-01-21T18:00:36.183Z,1.68
2023-01-21T18:03:03.253Z,1.75
2023-01-21T18:05:30.514Z,1.74
2023-01-21T18:07:57.651Z,1.71
2023-01-21T18:10:27.174Z,1.70
2023-01-21T18:13:00.041Z,1.77
2023-01-21T18:15:27.242Z,1.82
2023-01-21T18:17:56.218Z,1.77
2023-01-21T18:20:25.069Z,1.70
2023-01-21T18:22:53.045Z,1.72
2023-01-21T18:25:20.524Z,1.80
2023-01-21T18:27:51.957Z,1.73
2023-01-21T18:30:20.328Z,1.63
2023-01-21T18:32:47.359Z,1.56
2023-01-21T18:35:15.514Z,1.58
2023-01-21T18:37:42.909Z,1.56
2023-01-21T18:40:15.848Z,1.50
2023-01-21T18:42:42.768Z,1.46
2023-01-21T18:45:20.454Z,1.51
2023-01-21T18:47:48.303Z,1.57
2023-01-21T18:50:20.790Z,1.51
2023-01-21T18:52:48.142Z,1.47
2023-01-21T18:55:16.073Z,1.55
2023-01-21T18:57:43.992Z,1.62
2023-01-21T19:00:24.594Z,1.60
2023-01-21T19:02:55.988Z,1.56
2023-01-21T19:05:28.065Z,1.59
2023-01-21T19:07:55.503Z,1.68
2023-01-21T19:10:22.463Z,1.71
2023-01-21T19:12:49.535Z,1.70
2023-01-21T19:15:18.500Z,1.68
2023-01-21T19:17:45.447Z,1.76
2023-01-21T19:20:17.562Z,1.84
2023-01-21T19:22:45.567Z,1.85
2023-01-21T19:25:12.630Z,1.82
2023-01-21T19:27:42.231Z,1.80
2023-01-21T19:30:19.348Z,1.87
2023-01-21T19:32:46.967Z,1.89
2023-01-21T19:35:18.249Z,1.82
2023-01-21T19:37:45.780Z,1.76
2023-01-21T19:40:17.509Z,1.82
2023-01-21T19:42:44.999Z,1.88
2023-01-21T19:45:12.299Z,1.85
2023-01-21T19:47:41.870Z,1.78
2023-01-21T19:50:17.993Z,1.77
2023-01-21T19:52:45.783Z,1.86
2023-01-21T19:55:17.427Z,1.89
2023-01-21T19:57:45.816Z,1.85
2023-01-21T20:00:26.983Z,1.84
2023-01-21T20:02:54.454Z,1.92
2023-01-21T20:05:21.710Z,1.91
2023-01-21T20:07:49.541Z,1.86
2023-01-21T20:10:17.523Z,1.86
2023-01-21T20:12:44.783Z,1.96
2023-01-21T20:15:16.494Z,1.99
2023-01-21T20:17:47.995Z,1.93
2023-01-21T20:20:25.584Z,1.89
2023-01-21T20:22:52.565Z,1.93
2023-01-21T20:25:21.836Z,1.98
2023-01-21T20:27:53.627Z,1.92
2023-01-21T20:30:22.349Z,1.85
2023-01-21T20:32:49.854Z,1.82
2023-01-21T20:35:17.408Z,1.89
2023-01-21T20:37:51.880Z,1.97
2023-01-21T20:40:23.377Z,1.97
2023-01-21T20:42:50.659Z,1.93
2023-01-21T20:45:18.486Z,1.93
2023-01-21T20:47:50.017Z,2.01
2023-01-21T20:50:35.399Z,2.01
2023-01-21T20:53:03.692Z,1.96
2023-01-21T20:55:31.124Z,1.97
2023-01-21T20:57:57.998Z,2.07
2023-01-21T21:00:27.190Z,2.12
2023-01-21T21:02:57.733Z,2.11
2023-01-21T21:05:25.791Z,2.12
2023-01-21T21:07:53.048Z,2.16
2023-01-21T21:10:21.280Z,2.28
2023-01-21T21:12:48.758Z,2.37
2023-01-21T21:15:16.320Z,2.38
2023-01-21T21:17:43.887Z,2.35
2023-01-21T21:20:18.092Z,2.39
2023-01-21T21:22:45.472Z,2.51
2023-01-21T21:25:17.264Z,2.54
2023-01-21T21:27:44.760Z,2.52
2023-01-21T21:30:16.797Z,2.51
2023-01-21T21:32:43.659Z,2.63
2023-01-21T21:35:24.560Z,2.69
2023-01-21T21:37:51.765Z,2.65
2023-01-21T21:40:23.064Z,2.65
2023-01-21T21:43:08.811Z,2.68
2023-01-21T21:45:36.537Z,2.81
2023-01-21T21:48:22.831Z,2.86
2023-01-21T21:50:58.805Z,2.81
2023-01-21T21:53:25.809Z,2.79
2023-01-21T21:55:52.773Z,2.78
2023-01-21T21:58:19.602Z,2.87
2023-01-21T22:00:46.675Z,2.93
2023-01-21T22:03:13.603Z,2.92
2023-01-21T22:05:40.403Z,2.91
2023-01-21T22:08:08.616Z,2.94
2023-01-21T22:10:35.404Z,3.03
2023-01-21T22:13:02.443Z,3.06
2023-01-21T22:15:29.358Z,3.01
2023-01-21T22:17:56.152Z,2.95
2023-01-21T22:20:22.969Z,2.92
2023-01-21T22:22:49.739Z,2.99
2023-01-21T22:25:16.848Z,3.07
2023-01-21T22:27:45.000Z,3.06
2023-01-21T22:30:12.728Z,3.04
2023-01-21T22:32:39.468Z,3.05
2023-01-21T22:35:06.959Z,3.13
2023-01-21T22:37:33.670Z,3.19
2023-01-21T22:40:00.474Z,3.13
2023-01-21T22:42:27.374Z,3.10
2023-01-21T22:44:54.224Z,3.08
2023-01-21T22:47:20.951Z,3.19
2023-01-21T22:49:49.397Z,3.28
2023-01-21T22:52:16.200Z,3.24
2023-01-21T22:54:43.181Z,3.17
2023-01-21T22:57:09.992Z,3.10
2023-01-21T22:59:37.113Z,3.10
2023-01-21T23:02:03.901Z,3.14
2023-01-21T23:04:30.677Z,3.09
2023-01-21T23:06:57.760Z,3.03
2023-01-21T23:09:24.691Z,2.96
2023-01-21T23:11:52.820Z,2.98
2023-01-21T23:14:19.796Z,3.02
2023-01-21T23:16:46.752Z,3.00
2023-01-21T23:19:13.705Z,2.95
2023-01-21T23:21:40.637Z,2.94
2023-01-21T23:24:07.723Z,3.05
2023-01-21T23:26:34.541Z,3.13
2023-01-21T23:29:01.337Z,3.12
2023-01-21T23:31:28.219Z,3.09
2023-01-21T23:33:56.317Z,3.06
2023-01-21T23:36:23.285Z,3.15
2023-01-21T23:38:50.075Z,3.20
2023-01-21T23:41:17.160Z,3.19
2023-01-21T23:43:44.072Z,3.14
2023-01-21T23:46:13.010Z,3.12
2023-01-21T23:48:39.832Z,3.21
2023-01-21T23:51:08.260Z,3.30
2023-01-21T23:53:35.084Z,3.29
2023-01-21T23:56:14.274Z,3.25
2023-01-21T23:58:41.331Z,3.21
